Time;durP1;ratioP1;P1;durP2;ratioP2;P2;SDS_P1;SDS_P2;PMS_P1;PMS_P2;Temp;Humidity;BMP_temperature;BMP_pressure;BME280_temperature;BME280_humidity;BME280_pressure;Samples;Min_cycle;Max_cycle;Signal;HPM_P1;HPM_P2
2022/04/02 03:01:06;;;;;;;17.87;16.00;;;1.50;99.90;;;;;;5595970;23;20316;-76
2022/04/02 03:03:32;;;;;;;21.73;17.43;;;1.50;99.90;;;;;;4937079;29;20272;-76
2022/04/02 03:05:59;;;;;;;22.20;20.00;;;1.50;99.90;;;;;;4936848;29;20185;-76
2022/04/02 03:08:26;;;;;;;20.87;18.83;;;1.50;99.90;;;;;;4936525;29;20182;-77
2022/04/02 03:10:52;;;;;;;20.47;18.57;;;1.50;99.90;;;;;;4935549;29;20210;-76
2022/04/02 03:13:18;;;;;;;17.30;15.47;;;1.50;99.90;;;;;;4935225;29;20229;-75
2022/04/02 03:15:44;;;;;;;18.73;16.93;;;1.40;99.90;;;;;;4959240;23;20300;-81
2022/04/02 03:18:10;;;;;;;20.27;18.00;;;1.40;99.90;;;;;;4944157;29;20209;-80
2022/04/02 03:20:36;;;;;;;22.73;17.73;;;1.40;99.90;;;;;;4943047;29;20233;-81
2022/04/02 03:23:04;;;;;;;22.53;18.23;;;1.40;99.90;;;;;;4944146;29;20210;-81
2022/04/02 03:25:30;;;;;;;19.00;17.03;;;1.50;99.90;;;;;;4945319;29;20265;-81
2022/04/02 03:27:56;;;;;;;19.47;17.43;;;1.50;99.90;;;;;;4942866;29;20186;-80
2022/04/02 03:30:23;;;;;;;19.03;17.17;;;1.40;99.90;;;;;;4937404;29;20284;-81
2022/04/02 03:32:50;;;;;;;19.00;17.00;;;1.40;99.90;;;;;;4936575;29;20194;-80
2022/04/02 03:35:17;;;;;;;20.57;17.70;;;1.50;99.90;;;;;;4938679;29;20209;-80
2022/04/02 03:37:45;;;;;;;19.40;17.33;;;1.40;99.90;;;;;;4944804;29;20724;-78
2022/04/02 03:40:14;;;;;;;20.30;18.27;;;1.40;99.90;;;;;;4955999;29;20224;-79
2022/04/02 03:42:42;;;;;;;19.57;17.60;;;1.40;99.90;;;;;;4929807;29;20194;-80
2022/04/02 03:45:09;;;;;;;18.90;15.80;;;1.40;99.90;;;;;;4927006;29;20245;-79
2022/04/02 03:47:35;;;;;;;18.10;16.20;;;1.40;99.90;;;;;;4924274;29;20186;-81
2022/04/02 03:50:01;;;;;;;19.43;17.53;;;1.40;99.90;;;;;;4925513;29;20197;-81
2022/04/02 03:52:27;;;;;;;19.03;17.13;;;1.40;99.90;;;;;;4924008;29;20209;-80
2022/04/02 03:54:53;;;;;;;17.33;15.63;;;1.40;99.90;;;;;;4924918;29;20217;-80
2022/04/02 03:57:19;;;;;;;18.57;15.13;;;1.30;99.90;;;;;;4929911;29;20187;-81
2022/04/02 03:59:46;;;;;;;18.80;16.97;;;1.30;99.90;;;;;;4930204;29;20217;-81
2022/04/02 04:02:12;;;;;;;15.37;13.77;;;1.40;99.90;;;;;;4925950;29;20206;-81
2022/04/02 04:04:38;;;;;;;20.90;17.93;;;1.30;99.90;;;;;;4924866;29;20217;-81
2022/04/02 04:07:04;;;;;;;17.67;15.93;;;1.30;99.90;;;;;;4931910;29;20190;-81
2022/04/02 04:09:31;;;;;;;18.17;16.63;;;1.30;99.90;;;;;;4938347;29;20207;-81
2022/04/02 04:11:57;;;;;;;19.17;17.47;;;1.30;99.90;;;;;;4947427;29;20197;-81
2022/04/02 04:14:24;;;;;;;20.07;18.07;;;1.30;99.90;;;;;;4948445;29;20323;-80
2022/04/02 04:16:51;;;;;;;19.40;17.70;;;1.30;99.90;;;;;;4948346;29;20543;-82
2022/04/02 04:19:17;;;;;;;18.27;16.60;;;1.30;99.90;;;;;;4947952;29;20261;-82
2022/04/02 04:21:43;;;;;;;17.97;15.90;;;1.30;99.90;;;;;;4947271;29;20241;-82
2022/04/02 04:24:10;;;;;;;19.20;17.30;;;1.30;99.90;;;;;;4943722;29;20182;-80
2022/04/02 04:26:37;;;;;;;19.00;17.13;;;1.30;99.90;;;;;;4958731;28;20175;-80
2022/04/02 04:29:03;;;;;;;23.20;21.17;;;1.30;99.90;;;;;;4959635;28;20241;-80
2022/04/02 04:31:29;;;;;;;19.23;17.40;;;1.20;99.90;;;;;;4947050;29;20201;-81
2022/04/02 04:33:55;;;;;;;20.87;19.10;;;1.20;99.90;;;;;;4947461;29;20190;-81
2022/04/02 04:36:24;;;;;;;17.90;16.20;;;1.20;99.90;;;;;;4946484;29;20690;-81
2022/04/02 04:38:50;;;;;;;19.90;18.10;;;1.30;99.90;;;;;;4940714;29;20191;-82
2022/04/02 04:41:17;;;;;;;16.10;14.70;;;1.30;99.90;;;;;;4928737;29;20223;-81
2022/04/02 04:43:48;;;;;;;15.50;14.17;;;1.20;99.90;;;;;;4931931;29;20187;-81
2022/04/02 04:46:17;;;;;;;15.90;14.50;;;1.20;99.90;;;;;;4930258;29;20207;-82
2022/04/02 04:48:44;;;;;;;16.57;15.07;;;1.20;99.90;;;;;;4933560;29;20181;-80
2022/04/02 04:51:11;;;;;;;19.50;15.30;;;1.20;99.90;;;;;;4929456;29;20198;-82
2022/04/02 04:53:37;;;;;;;19.67;15.00;;;1.20;99.90;;;;;;4941323;29;20202;-81
2022/04/02 04:56:04;;;;;;;16.60;15.07;;;1.20;99.90;;;;;;4941438;29;20229;-81
2022/04/02 04:58:30;;;;;;;15.90;14.30;;;1.20;99.90;;;;;;4941056;29;20193;-81
2022/04/02 05:00:57;;;;;;;15.57;14.20;;;1.10;99.90;;;;;;4955761;29;20289;-82
2022/04/02 05:03:24;;;;;;;15.93;14.57;;;1.10;99.90;;;;;;4948867;29;20679;-81
2022/04/02 05:05:52;;;;;;;16.50;14.83;;;1.10;99.90;;;;;;4939975;29;20214;-80
2022/04/02 05:08:20;;;;;;;17.37;15.67;;;1.20;99.90;;;;;;4950591;29;20210;-81
2022/04/02 05:10:47;;;;;;;17.07;15.53;;;1.20;99.90;;;;;;4956491;29;20194;-81
2022/04/02 05:13:14;;;;;;;15.17;13.77;;;1.20;99.90;;;;;;4951726;29;20178;-80
2022/04/02 05:15:45;;;;;;;18.33;16.17;;;1.20;99.90;;;;;;4956453;29;20220;-81
2022/04/02 05:18:11;;;;;;;18.33;16.57;;;1.20;99.90;;;;;;4935921;29;20189;-82
2022/04/02 05:20:38;;;;;;;16.83;15.47;;;1.20;99.90;;;;;;4934969;29;20214;-82
2022/04/02 05:23:08;;;;;;;16.67;15.27;;;1.20;99.90;;;;;;4939526;29;20221;-82
2022/04/02 05:25:38;;;;;;;17.97;16.30;;;1.20;99.90;;;;;;4935388;29;20280;-80
2022/04/02 05:28:05;;;;;;;17.60;15.80;;;1.20;99.90;;;;;;4913596;29;20183;-82
2022/04/02 05:30:32;;;;;;;17.33;15.83;;;1.20;99.90;;;;;;4928960;29;20190;-83
2022/04/02 05:32:58;;;;;;;17.73;16.03;;;1.20;99.90;;;;;;4937304;29;20283;-83
2022/04/02 05:35:24;;;;;;;16.33;14.57;;;1.20;99.90;;;;;;4936627;29;20233;-82
2022/04/02 05:37:50;;;;;;;17.13;15.53;;;1.20;99.90;;;;;;4938096;29;20217;-82
2022/04/02 05:40:16;;;;;;;17.00;15.63;;;1.20;99.90;;;;;;4928184;29;20211;-82
2022/04/02 05:42:43;;;;;;;18.00;16.50;;;1.20;99.90;;;;;;4917706;29;20210;-82
2022/04/02 05:45:09;;;;;;;17.30;15.90;;;1.20;99.90;;;;;;4921026;29;20828;-80
2022/04/02 05:47:46;;;;;;;17.87;16.37;;;1.30;99.90;;;;;;4934070;29;20185;-80
2022/04/02 05:50:14;;;;;;;16.20;14.67;;;1.30;99.90;;;;;;4940506;29;20209;-81
2022/04/02 05:52:40;;;;;;;16.47;15.13;;;1.30;99.90;;;;;;4944459;29;20193;-80
2022/04/02 05:55:11;;;;;;;18.47;16.80;;;1.30;99.90;;;;;;4940008;29;20216;-82
2022/04/02 05:57:38;;;;;;;17.87;16.23;;;1.30;99.90;;;;;;4953512;29;20194;-80
2022/04/02 06:00:06;;;;;;;15.93;14.40;;;1.30;99.90;;;;;;4951701;28;20289;-81
2022/04/02 06:02:32;;;;;;;19.43;15.63;;;1.30;99.90;;;;;;4940908;29;20267;-81
2022/04/02 06:04:58;;;;;;;15.53;13.93;;;1.40;99.90;;;;;;4940448;29;20200;-82
2022/04/02 06:07:24;;;;;;;16.23;14.87;;;1.30;99.90;;;;;;4938134;29;20280;-74
2022/04/02 06:09:49;;;;;;;17.23;15.53;;;1.40;99.90;;;;;;4927215;29;20355;-73
2022/04/02 06:12:15;;;;;;;16.47;15.07;;;1.40;99.90;;;;;;4914141;29;20276;-72
2022/04/02 06:14:41;;;;;;;16.70;15.10;;;1.40;99.90;;;;;;4914567;29;20219;-73
2022/04/02 06:17:06;;;;;;;16.37;14.77;;;1.40;99.90;;;;;;4914123;29;20725;-74
2022/04/02 06:19:32;;;;;;;15.43;12.77;;;1.50;99.90;;;;;;4916022;29;20680;-74
2022/04/02 06:21:58;;;;;;;16.40;15.07;;;1.50;99.90;;;;;;4933152;29;20251;-73
2022/04/02 06:24:24;;;;;;;16.43;15.07;;;1.50;99.90;;;;;;4933593;29;20211;-74
2022/04/02 06:26:49;;;;;;;15.77;14.13;;;1.50;99.90;;;;;;4932564;29;20634;-74
2022/04/02 06:29:15;;;;;;;15.67;14.27;;;1.50;99.90;;;;;;4914097;29;20184;-74
2022/04/02 06:31:41;;;;;;;16.20;14.70;;;1.50;99.90;;;;;;4914069;29;20196;-74
2022/04/02 06:34:07;;;;;;;16.23;14.93;;;1.50;99.90;;;;;;4914058;29;20686;-74
2022/04/02 06:36:32;;;;;;;17.70;16.17;;;1.50;99.90;;;;;;4912920;29;20303;-74
2022/04/02 06:38:58;;;;;;;16.93;15.53;;;1.50;99.90;;;;;;4913765;29;20262;-73
2022/04/02 06:41:24;;;;;;;17.17;15.67;;;1.50;99.90;;;;;;4912735;29;20228;-73
2022/04/02 06:43:50;;;;;;;18.57;17.17;;;1.50;99.90;;;;;;4915823;29;20209;-73
2022/04/02 06:46:16;;;;;;;18.43;16.97;;;1.60;99.90;;;;;;4914447;29;20237;-73
2022/04/02 06:48:41;;;;;;;18.27;16.97;;;1.60;99.90;;;;;;4926216;29;20189;-75
2022/04/02 06:51:07;;;;;;;20.07;18.50;;;1.60;99.90;;;;;;4933344;29;20187;-74
2022/04/02 06:53:34;;;;;;;17.93;16.63;;;1.60;99.90;;;;;;4932724;29;20659;-75
2022/04/02 06:56:00;;;;;;;18.77;16.83;;;1.70;99.90;;;;;;4932799;29;20216;-75
2022/04/02 06:58:32;;;;;;;14.63;13.33;;;1.80;99.90;;;;;;4929864;29;20573;-74
2022/04/02 07:00:58;;;;;;;13.30;12.27;;;1.70;99.90;;;;;;4932231;29;20232;-75
2022/04/02 07:03:24;;;;;;;15.07;13.00;;;1.70;99.90;;;;;;4936063;29;20181;-76
2022/04/02 07:05:50;;;;;;;13.70;11.47;;;1.70;99.90;;;;;;4935023;29;20217;-74
2022/04/02 07:08:16;;;;;;;12.07;11.00;;;1.80;99.90;;;;;;4926717;29;20623;-71
2022/04/02 07:10:41;;;;;;;11.93;10.73;;;1.80;99.90;;;;;;4916562;29;20192;-74
2022/04/02 07:13:07;;;;;;;12.60;11.30;;;1.70;99.90;;;;;;4916459;29;20747;-74
2022/04/02 07:15:33;;;;;;;12.27;11.07;;;1.70;99.90;;;;;;4915932;29;20654;-72
2022/04/02 07:18:09;;;;;;;12.13;11.03;;;1.80;99.90;;;;;;4917681;29;20658;-72
2022/04/02 07:20:37;;;;;;;11.50;10.40;;;1.80;99.90;;;;;;4935972;29;20653;-72
2022/04/02 07:23:04;;;;;;;12.90;11.60;;;1.90;99.90;;;;;;4936176;29;20188;-74
2022/04/02 07:25:31;;;;;;;13.03;11.90;;;1.80;99.90;;;;;;4935955;29;20875;-75
2022/04/02 07:27:58;;;;;;;13.90;11.60;;;1.80;99.90;;;;;;4928603;29;20264;-75
2022/04/02 07:30:24;;;;;;;13.40;12.10;;;1.80;99.90;;;;;;4917150;29;20238;-74
2022/04/02 07:32:51;;;;;;;12.63;11.53;;;1.90;99.90;;;;;;4915388;29;20651;-75
2022/04/02 07:35:18;;;;;;;12.93;11.73;;;2.00;99.90;;;;;;4916886;29;20202;-74
2022/04/02 07:38:02;;;;;;;13.63;12.43;;;2.10;99.90;;;;;;4931775;29;20216;-74
2022/04/02 07:40:44;;;;;;;15.47;14.17;;;2.10;99.90;;;;;;4963274;29;20192;-73
2022/04/02 07:43:31;;;;;;;16.00;14.50;;;2.10;99.90;;;;;;4933960;29;20186;-73
2022/04/02 07:46:04;;;;;;;17.20;15.80;;;2.10;99.90;;;;;;4935885;29;20209;-74
2022/04/02 07:48:32;;;;;;;16.77;15.10;;;2.20;99.90;;;;;;4924391;29;20183;-73
2022/04/02 07:51:01;;;;;;;16.17;14.90;;;2.10;99.90;;;;;;4916903;29;20210;-74
2022/04/02 07:53:34;;;;;;;13.27;12.00;;;2.10;99.90;;;;;;4916869;29;20800;-74
2022/04/02 07:56:04;;;;;;;13.63;12.23;;;2.20;99.90;;;;;;4916676;29;20690;-74
2022/04/02 07:58:38;;;;;;;14.53;11.83;;;2.20;99.90;;;;;;4915027;29;20177;-74
2022/04/02 08:01:05;;;;;;;14.73;12.80;;;2.30;99.90;;;;;;4916887;29;20187;-75
2022/04/02 08:03:31;;;;;;;9.67;8.67;;;2.20;99.90;;;;;;4915331;29;20186;-74
2022/04/02 08:05:57;;;;;;;13.63;11.77;;;2.20;99.90;;;;;;4916311;29;20217;-74
2022/04/02 08:08:25;;;;;;;12.40;11.30;;;2.20;99.90;;;;;;4920370;29;20221;-75
2022/04/02 08:10:55;;;;;;;12.43;11.20;;;2.40;99.90;;;;;;4934041;29;20687;-75
2022/04/02 08:13:22;;;;;;;12.07;10.87;;;2.70;99.90;;;;;;4935313;29;20181;-74
2022/04/02 08:15:54;;;;;;;12.10;11.00;;;2.80;99.90;;;;;;4935048;29;20232;-73
2022/04/02 08:18:28;;;;;;;11.70;10.70;;;2.90;99.90;;;;;;4926902;29;20262;-74
2022/04/02 08:20:55;;;;;;;11.03;10.03;;;3.00;99.90;;;;;;4916307;29;20195;-75
2022/04/02 08:23:21;;;;;;;11.30;10.27;;;3.10;99.90;;;;;;4914884;29;20217;-75
2022/04/02 08:26:01;;;;;;;10.97;9.97;;;3.20;99.90;;;;;;4915998;29;20290;-75
2022/04/02 08:28:50;;;;;;;10.07;9.23;;;3.20;99.90;;;;;;4919322;29;20179;-75
2022/04/02 08:31:22;;;;;;;11.57;10.23;;;3.40;99.90;;;;;;4908900;29;20217;-74
2022/04/02 08:34:24;;;;;;;22.13;20.53;;;3.60;99.90;;;;;;4910483;29;20197;-73
2022/04/02 08:37:29;;;;;;;17.53;16.30;;;3.60;99.90;;;;;;4916964;29;20190;-74
2022/04/02 08:40:31;;;;;;;18.77;17.40;;;3.40;99.90;;;;;;4895882;29;20185;-74
2022/04/02 08:43:19;;;;;;;17.73;16.37;;;3.40;99.90;;;;;;4896968;29;20183;-74
2022/04/02 08:45:58;;;;;;;20.57;19.27;;;3.60;99.90;;;;;;4897722;29;20675;-74
2022/04/02 08:48:29;;;;;;;10.80;9.90;;;3.50;99.90;;;;;;4913754;29;20195;-74
2022/04/02 08:51:31;;;;;;;17.30;16.20;;;3.40;99.90;;;;;;4934302;29;20632;-74
2022/04/02 08:54:05;;;;;;;12.57;11.33;;;3.50;99.90;;;;;;4934709;29;20186;-74
2022/04/02 08:56:38;;;;;;;8.37;7.77;;;3.40;99.90;;;;;;4933173;29;20181;-74
2022/04/02 08:59:06;;;;;;;9.57;8.87;;;3.30;99.90;;;;;;4934487;29;20540;-76
2022/04/02 09:01:57;;;;;;;10.70;9.83;;;3.30;99.90;;;;;;4942629;29;20194;-83
2022/04/02 09:04:51;;;;;;;12.33;11.23;;;3.40;99.90;;;;;;4945193;29;20268;-78
2022/04/02 09:07:32;;;;;;;11.40;10.33;;;3.60;99.90;;;;;;4931169;29;20247;-72
2022/04/02 09:10:39;;;;;;;10.10;9.20;;;3.70;99.90;;;;;;4916143;29;20190;-73
2022/04/02 09:13:23;;;;;;;10.47;9.67;;;3.70;99.90;;;;;;4875403;29;20191;-75
2022/04/02 09:16:02;;;;;;;11.67;10.57;;;3.60;99.90;;;;;;4937084;23;20273;-75
2022/04/02 09:18:53;;;;;;;11.63;10.53;;;3.60;99.90;;;;;;4910315;29;20274;-78
2022/04/02 09:21:36;;;;;;;10.50;9.67;;;3.60;99.90;;;;;;4910019;29;20221;-77
2022/04/02 09:24:08;;;;;;;10.93;10.00;;;3.40;99.90;;;;;;4915069;29;20187;-77
2022/04/02 09:27:04;;;;;;;10.57;9.57;;;3.40;99.90;;;;;;4933130;29;20248;-77
2022/04/02 09:29:57;;;;;;;8.50;7.87;;;3.50;99.90;;;;;;4925355;29;20901;-77
2022/04/02 09:32:45;;;;;;;10.27;9.37;;;3.40;99.90;;;;;;4915453;29;20204;-77
2022/04/02 09:35:59;;;;;;;11.27;10.27;;;3.20;99.90;;;;;;4926953;29;20205;-77
2022/04/02 09:38:43;;;;;;;10.80;9.93;;;3.40;99.90;;;;;;4931975;29;20229;-76
2022/04/02 09:41:15;;;;;;;10.67;9.80;;;3.90;99.90;;;;;;4941791;29;20219;-77
2022/04/02 09:44:03;;;;;;;10.47;9.63;;;3.90;99.90;;;;;;4934976;29;20717;-77
2022/04/02 09:46:48;;;;;;;11.60;10.70;;;4.10;99.90;;;;;;4892749;29;20860;-77
2022/04/02 09:49:27;;;;;;;11.57;10.37;;;4.10;99.90;;;;;;4916846;29;20190;-79
2022/04/02 09:52:05;;;;;;;12.87;11.93;;;4.10;99.90;;;;;;4922904;29;20242;-77
2022/04/02 09:54:37;;;;;;;12.83;11.73;;;3.90;99.90;;;;;;4927783;29;20285;-79
2022/04/02 09:57:23;;;;;;;12.63;11.53;;;3.70;99.90;;;;;;4926008;29;20206;-77
2022/04/02 10:00:03;;;;;;;11.83;10.80;;;3.70;99.90;;;;;;4920719;29;20199;-79
2022/04/02 10:02:38;;;;;;;14.80;12.93;;;3.60;99.90;;;;;;4924493;29;20185;-78
2022/04/02 10:05:12;;;;;;;12.93;11.70;;;3.70;99.90;;;;;;4931135;29;20217;-79
2022/04/02 10:07:59;;;;;;;11.27;10.37;;;3.60;99.90;;;;;;4944488;29;20197;-76
2022/04/02 10:10:28;;;;;;;10.97;10.07;;;3.30;99.90;;;;;;4958604;28;20228;-77
2022/04/02 10:12:55;;;;;;;12.10;11.10;;;3.30;99.90;;;;;;4957983;28;20198;-78
2022/04/02 10:15:23;;;;;;;10.47;9.60;;;3.50;99.90;;;;;;4938737;29;21009;-78
2022/04/02 10:17:52;;;;;;;10.93;8.17;;;3.70;99.90;;;;;;4927837;29;20217;-78
2022/04/02 10:20:28;;;;;;;11.97;11.07;;;4.20;99.90;;;;;;4922560;29;20194;-78
2022/04/02 10:23:14;;;;;;;11.10;10.20;;;4.30;99.90;;;;;;4921828;29;20328;-79
2022/04/02 10:25:54;;;;;;;12.23;11.23;;;4.50;99.90;;;;;;4935210;29;20214;-77
2022/04/02 10:28:24;;;;;;;12.10;10.93;;;4.40;99.90;;;;;;4928995;29;20189;-79
2022/04/02 10:30:55;;;;;;;12.23;11.33;;;4.40;99.90;;;;;;4933370;29;20290;-78
2022/04/02 10:33:27;;;;;;;12.87;11.67;;;4.30;99.90;;;;;;4932423;29;20190;-79
2022/04/02 10:35:55;;;;;;;12.33;11.30;;;4.20;99.90;;;;;;4938158;29;20249;-80
2022/04/02 10:38:35;;;;;;;12.80;11.80;;;3.90;99.90;;;;;;4940278;29;20671;-77
2022/04/02 10:41:10;;;;;;;9.77;8.97;;;4.00;99.90;;;;;;4943173;29;20200;-77
2022/04/02 10:43:45;;;;;;;12.37;11.23;;;4.00;99.90;;;;;;4941074;29;20193;-78
2022/04/02 10:46:15;;;;;;;9.47;8.77;;;4.10;99.90;;;;;;4942351;29;20219;-78
2022/04/02 10:48:52;;;;;;;11.60;10.63;;;4.20;99.90;;;;;;4940082;29;20245;-77
2022/04/02 10:51:23;;;;;;;9.53;8.73;;;4.20;99.90;;;;;;4937126;29;20314;-79
2022/04/02 10:54:16;;;;;;;10.53;9.50;;;4.10;99.90;;;;;;4924326;29;20190;-77
2022/04/02 10:56:46;;;;;;;11.10;10.10;;;4.10;99.90;;;;;;4927320;29;20281;-78
2022/04/02 10:59:21;;;;;;;10.00;9.20;;;4.20;99.90;;;;;;4924270;29;20183;-79
2022/04/02 11:01:53;;;;;;;11.20;10.20;;;4.30;99.90;;;;;;4937006;29;20191;-79
2022/04/02 11:04:27;;;;;;;15.23;12.37;;;4.20;99.90;;;;;;4948592;29;20288;-77
2022/04/02 11:06:53;;;;;;;12.97;11.63;;;4.10;99.90;;;;;;4936823;29;20212;-78
2022/04/02 11:09:30;;;;;;;15.90;14.23;;;3.90;99.90;;;;;;4938685;29;20180;-78
2022/04/02 11:12:05;;;;;;;15.47;13.97;;;3.70;99.90;;;;;;4927567;29;20252;-79
2022/04/02 11:14:36;;;;;;;7.87;7.37;;;3.50;99.90;;;;;;4919565;29;20274;-78
2022/04/02 11:17:03;;;;;;;11.57;10.47;;;3.30;99.90;;;;;;4917583;29;20225;-78
2022/04/02 11:22:47;;;;;;;10.83;10.03;;;3.00;99.90;;;;;;4942909;29;20198;-77
2022/04/02 11:25:35;;;;;;;10.93;9.97;;;2.80;99.90;;;;;;4937811;29;20206;-77
2022/04/02 11:28:13;;;;;;;13.17;11.00;;;2.80;99.90;;;;;;4937927;29;20213;-78
2022/04/02 11:30:40;;;;;;;9.67;8.83;;;2.90;99.90;;;;;;4938486;29;20300;-78
2022/04/02 11:33:18;;;;;;;11.53;10.50;;;3.10;99.90;;;;;;4929644;29;20179;-77
2022/04/02 11:35:45;;;;;;;12.00;10.93;;;3.00;99.90;;;;;;4923729;29;20210;-78
2022/04/02 11:38:20;;;;;;;13.87;11.70;;;3.00;99.90;;;;;;4922137;29;20181;-78
2022/04/02 11:40:54;;;;;;;12.70;11.50;;;3.20;99.90;;;;;;4921232;29;20190;-79
2022/04/02 11:43:31;;;;;;;10.73;9.73;;;3.40;99.90;;;;;;4923864;29;20193;-79
2022/04/02 11:45:59;;;;;;;12.80;11.63;;;3.50;99.90;;;;;;4932157;29;20207;-79
2022/04/02 11:48:31;;;;;;;13.37;12.17;;;3.50;99.90;;;;;;4930116;29;20263;-79
2022/04/02 11:51:12;;;;;;;13.37;12.00;;;3.40;99.90;;;;;;4937715;29;20221;-79
2022/04/02 11:53:38;;;;;;;13.77;12.47;;;3.60;99.90;;;;;;4941564;29;20640;-77
2022/04/02 11:56:21;;;;;;;14.30;13.10;;;3.70;99.90;;;;;;4943863;29;20300;-77
2022/04/02 11:58:48;;;;;;;12.70;11.50;;;3.70;99.90;;;;;;4943595;29;20260;-76
2022/04/02 12:01:14;;;;;;;13.53;12.23;;;3.70;99.90;;;;;;4939032;29;20195;-78
2022/04/02 12:03:41;;;;;;;12.43;11.40;;;3.60;99.90;;;;;;4925060;29;20294;-80
2022/04/02 12:06:14;;;;;;;14.23;13.03;;;3.60;99.90;;;;;;4921427;29;20234;-78
2022/04/02 12:08:43;;;;;;;13.20;12.00;;;3.60;99.90;;;;;;4919730;29;20213;-78
2022/04/02 12:11:23;;;;;;;12.57;11.27;;;3.60;99.90;;;;;;4922387;29;20285;-78
2022/04/02 12:13:59;;;;;;;11.93;10.90;;;3.60;99.90;;;;;;4938763;29;20697;-78
2022/04/02 12:16:28;;;;;;;12.63;11.53;;;3.60;99.90;;;;;;4943235;29;20252;-78
2022/04/02 12:18:59;;;;;;;9.80;8.97;;;3.60;99.90;;;;;;4943024;29;20185;-78
2022/04/02 12:21:41;;;;;;;10.47;9.60;;;3.60;99.90;;;;;;4936386;29;20182;-78
2022/04/02 12:24:08;;;;;;;12.43;11.30;;;3.40;99.90;;;;;;4901692;29;20191;-78
2022/04/02 12:26:34;;;;;;;13.27;12.17;;;3.40;99.90;;;;;;4901854;29;20209;-78
2022/04/02 12:29:02;;;;;;;13.40;12.13;;;3.50;99.90;;;;;;4902001;29;20196;-78
2022/04/02 12:31:30;;;;;;;14.43;12.83;;;3.40;99.90;;;;;;4909631;29;20285;-78
2022/04/02 12:33:58;;;;;;;14.10;12.30;;;3.40;99.90;;;;;;4938619;29;20287;-78
2022/04/02 12:36:35;;;;;;;17.37;15.60;;;3.40;99.90;;;;;;4940018;29;20277;-78
2022/04/02 12:39:04;;;;;;;16.07;14.67;;;3.30;99.90;;;;;;4941819;29;20207;-78
2022/04/02 12:41:30;;;;;;;16.03;14.53;;;3.40;99.90;;;;;;4935230;29;20216;-78
2022/04/02 12:44:02;;;;;;;14.83;13.63;;;3.50;99.90;;;;;;4919769;29;20194;-78
2022/04/02 12:46:29;;;;;;;14.63;13.23;;;3.60;99.90;;;;;;4918866;29;20206;-77
2022/04/02 12:48:57;;;;;;;12.77;11.30;;;3.50;99.90;;;;;;4933167;29;20178;-78
2022/04/02 12:51:23;;;;;;;15.97;14.40;;;3.40;99.90;;;;;;4936946;29;20194;-77
2022/04/02 12:53:55;;;;;;;17.20;14.47;;;3.30;99.90;;;;;;4938079;29;20186;-77
2022/04/02 12:56:32;;;;;;;16.30;14.60;;;3.30;99.90;;;;;;4934570;29;20216;-77
2022/04/02 12:58:58;;;;;;;14.83;13.33;;;3.40;99.90;;;;;;4934619;29;20184;-77
2022/04/02 13:01:25;;;;;;;16.20;14.53;;;3.40;99.90;;;;;;4924884;29;20276;-78
2022/04/02 13:04:08;;;;;;;16.40;14.70;;;3.40;99.90;;;;;;4949388;29;20193;-77
2022/04/02 13:06:39;;;;;;;13.77;12.40;;;3.50;99.90;;;;;;4936237;29;20215;-77
2022/04/02 13:09:16;;;;;;;14.43;13.10;;;3.30;99.90;;;;;;4942668;29;20634;-77
2022/04/02 13:11:57;;;;;;;15.60;13.90;;;3.40;99.90;;;;;;4932830;29;20207;-78
2022/04/02 13:14:33;;;;;;;15.77;14.27;;;3.40;99.90;;;;;;4916359;29;20190;-78
2022/04/02 13:17:17;;;;;;;14.43;13.17;;;3.60;99.90;;;;;;4915137;29;20656;-78
2022/04/02 13:22:44;;;;;;;15.23;13.73;;;3.60;99.90;;;;;;4927729;29;20264;-77
2022/04/02 13:25:16;;;;;;;11.97;11.03;;;3.70;99.90;;;;;;4952403;29;20277;-77
2022/04/02 13:28:04;;;;;;;14.70;13.30;;;3.60;99.90;;;;;;4946556;29;20182;-77
2022/04/02 13:30:49;;;;;;;23.17;11.47;;;3.60;99.90;;;;;;4939194;28;20724;-78
2022/04/02 13:33:36;;;;;;;15.80;13.83;;;3.60;99.90;;;;;;4920644;29;20245;-78
2022/04/02 13:36:20;;;;;;;13.97;12.67;;;3.40;99.90;;;;;;4925336;29;20221;-78
2022/04/02 13:38:57;;;;;;;15.33;13.83;;;3.50;99.90;;;;;;4932984;29;20193;-78
2022/04/02 13:41:28;;;;;;;13.83;12.53;;;3.50;99.90;;;;;;4934532;29;20200;-78
2022/04/02 13:43:58;;;;;;;16.07;13.47;;;3.80;99.90;;;;;;4942119;29;20193;-79
2022/04/02 13:46:28;;;;;;;15.20;13.90;;;4.10;99.90;;;;;;4949894;29;20210;-78
2022/04/02 13:49:08;;;;;;;15.00;13.43;;;4.30;99.90;;;;;;4935951;29;20197;-78
2022/04/02 13:51:59;;;;;;;15.27;13.17;;;4.30;99.90;;;;;;4935062;29;20222;-79
2022/04/02 13:54:34;;;;;;;14.63;13.10;;;4.10;99.90;;;;;;4931264;29;20186;-78
2022/04/02 13:57:06;;;;;;;15.27;13.87;;;3.90;99.90;;;;;;4931084;29;20193;-78
2022/04/02 13:59:38;;;;;;;14.90;13.30;;;3.90;99.90;;;;;;4920304;29;20209;-78
2022/04/02 14:02:05;;;;;;;16.33;14.73;;;3.60;99.90;;;;;;4923108;29;20578;-78
2022/04/02 14:04:34;;;;;;;16.97;15.10;;;3.70;99.90;;;;;;4941750;29;20193;-79
2022/04/02 14:07:03;;;;;;;14.83;13.23;;;3.90;99.90;;;;;;4943581;29;20212;-79
2022/04/02 14:09:31;;;;;;;19.00;14.70;;;4.00;99.90;;;;;;4942969;29;20179;-79
2022/04/02 14:12:08;;;;;;;14.77;13.27;;;4.20;99.90;;;;;;4937812;29;20265;-79
2022/04/02 14:14:57;;;;;;;15.77;14.20;;;4.30;99.90;;;;;;4922991;29;20257;-78
2022/04/02 14:17:28;;;;;;;16.63;14.97;;;4.40;99.90;;;;;;4923263;29;20198;-79
2022/04/02 14:20:01;;;;;;;16.10;14.70;;;4.60;99.90;;;;;;4924003;29;20212;-78
2022/04/02 14:22:27;;;;;;;16.73;15.13;;;4.50;99.90;;;;;;4930257;29;20186;-77
2022/04/02 14:25:11;;;;;;;16.90;15.43;;;4.40;99.90;;;;;;4942012;29;20209;-77
2022/04/02 14:27:58;;;;;;;21.10;18.80;;;4.10;99.90;;;;;;4941911;29;20214;-77
2022/04/02 14:30:30;;;;;;;16.37;14.67;;;4.00;99.90;;;;;;4928248;29;20342;-76
2022/04/02 14:33:30;;;;;;;16.40;14.70;;;4.00;99.90;;;;;;4923123;29;20666;-78
2022/04/02 14:36:19;;;;;;;16.30;14.73;;;4.10;99.90;;;;;;4917397;29;20211;-74
2022/04/02 14:39:09;;;;;;;15.20;13.60;;;4.20;99.90;;;;;;4916620;29;20187;-74
2022/04/02 14:41:35;;;;;;;15.37;13.87;;;4.20;99.90;;;;;;4928632;29;20532;-70
2022/04/02 14:44:21;;;;;;;16.30;14.60;;;4.30;99.90;;;;;;4935782;29;20210;-70
2022/04/02 14:47:18;;;;;;;15.87;14.27;;;4.40;99.90;;;;;;4936298;29;20206;-70
2022/04/02 14:50:08;;;;;;;15.60;14.00;;;4.20;99.90;;;;;;4935600;29;20201;-70
2022/04/02 14:52:40;;;;;;;15.27;13.77;;;4.20;99.90;;;;;;4898232;29;20202;-70
2022/04/02 14:55:28;;;;;;;15.73;14.10;;;4.30;99.90;;;;;;4898715;29;20706;-70
2022/04/02 14:58:18;;;;;;;16.63;14.83;;;4.30;99.90;;;;;;4897499;29;20198;-75
2022/04/02 15:00:56;;;;;;;16.30;14.60;;;4.20;99.90;;;;;;4904883;29;20226;-74
2022/04/02 15:03:50;;;;;;;16.30;14.70;;;4.30;99.90;;;;;;4935381;29;20268;-74
2022/04/02 15:06:34;;;;;;;17.13;15.40;;;4.30;99.90;;;;;;4935074;29;20716;-74
2022/04/02 15:09:38;;;;;;;20.13;16.67;;;4.30;99.90;;;;;;4935771;29;20658;-74
2022/04/02 15:12:09;;;;;;;16.93;15.13;;;4.20;99.90;;;;;;4919016;29;20244;-74
2022/04/02 15:14:37;;;;;;;16.30;14.70;;;3.90;99.90;;;;;;4916680;29;20191;-73
2022/04/02 15:17:23;;;;;;;26.17;14.70;;;3.90;99.90;;;;;;4952219;23;20300;-73
2022/04/02 15:19:49;;;;;;;16.90;15.20;;;3.80;99.90;;;;;;4935936;29;20284;-73
2022/04/02 15:22:24;;;;;;;18.87;16.93;;;3.50;99.90;;;;;;4934980;29;20221;-73
2022/04/02 15:24:50;;;;;;;17.53;15.60;;;3.20;99.90;;;;;;4934424;29;20197;-73
2022/04/02 15:27:16;;;;;;;21.97;19.37;;;3.10;99.90;;;;;;4935645;29;20304;-74
2022/04/02 15:29:44;;;;;;;22.83;19.17;;;3.10;99.90;;;;;;4936329;29;20281;-72
2022/04/02 15:32:20;;;;;;;21.80;18.47;;;3.10;99.90;;;;;;4920249;29;20360;-73
2022/04/02 15:34:51;;;;;;;19.30;16.73;;;3.00;99.90;;;;;;4915890;29;20217;-74
2022/04/02 15:37:24;;;;;;;18.63;16.60;;;3.00;99.90;;;;;;4916803;29;20256;-74
2022/04/02 15:39:50;;;;;;;21.00;18.73;;;2.90;99.90;;;;;;4916941;29;20262;-73
2022/04/02 15:42:18;;;;;;;22.10;19.73;;;2.90;99.90;;;;;;4928018;29;20285;-73
2022/04/02 15:44:46;;;;;;;20.47;18.27;;;3.00;99.90;;;;;;4935892;29;20190;-72
2022/04/02 15:47:46;;;;;;;21.70;18.23;;;3.10;99.90;;;;;;4936393;29;20232;-72
2022/04/02 15:50:20;;;;;;;20.87;18.63;;;3.10;99.90;;;;;;4935647;29;20589;-72
2022/04/02 15:53:08;;;;;;;21.73;19.33;;;3.30;99.90;;;;;;4897891;29;20194;-72
2022/04/02 15:55:53;;;;;;;22.37;18.43;;;3.40;99.90;;;;;;4897924;29;20719;-72
2022/04/02 15:58:32;;;;;;;21.97;19.20;;;3.40;99.90;;;;;;4897616;29;20191;-71
2022/04/02 16:01:05;;;;;;;22.53;19.93;;;3.40;99.90;;;;;;4904950;29;20234;-72
2022/04/02 16:03:31;;;;;;;22.20;19.87;;;3.40;99.90;;;;;;4934341;29;20186;-73
2022/04/02 16:06:17;;;;;;;23.93;21.13;;;3.30;99.90;;;;;;4920394;29;20210;-72
2022/04/02 16:08:52;;;;;;;19.80;17.80;;;3.30;99.90;;;;;;4916322;29;20183;-72
2022/04/02 16:11:33;;;;;;;26.50;20.23;;;3.20;99.90;;;;;;4923933;29;20584;-73
2022/04/02 16:14:13;;;;;;;21.80;19.50;;;3.10;99.90;;;;;;4934389;29;20189;-73